Time;durP1;ratioP1;P1;durP2;ratioP2;P2;SDS_P1;SDS_P2;PMS_P1;PMS_P2;Temp;Humidity;BMP_temperature;BMP_pressure;BME280_temperature;BME280_humidity;BME280_pressure;Samples;Min_cycle;Max_cycle;Signal;HPM_P1;HPM_P2
2023/12/14 00:01:14;;;;;;;15.90;8.50;;;;;;;14.06;100.00;99569.39;108146;1287;21985;-69
2023/12/14 00:03:46;;;;;;;16.60;9.10;;;;;;;14.07;100.00;99559.83;108116;1287;22007;-70
2023/12/14 00:06:12;;;;;;;18.80;8.20;;;;;;;14.06;100.00;99562.84;108145;1281;22461;-62
2023/12/14 00:08:38;;;;;;;15.70;7.90;;;;;;;14.07;100.00;99570.23;108163;1278;23041;-69
2023/12/14 00:11:10;;;;;;;17.40;7.80;;;;;;;14.05;100.00;99566.08;108116;1284;21994;-63
2023/12/14 00:13:36;;;;;;;16.80;7.50;;;;;;;14.06;100.00;99555.62;108146;1283;21998;-63
2023/12/14 00:16:02;;;;;;;18.30;8.10;;;;;;;13.99;100.00;99553.96;108224;1287;21986;-63
2023/12/14 00:18:28;;;;;;;26.40;10.20;;;;;;;14.05;100.00;99554.79;108116;1287;21992;-68
2023/12/14 00:20:53;;;;;;;17.00;8.50;;;;;;;14.07;100.00;99554.69;108199;1287;21989;-63
2023/12/14 00:23:23;;;;;;;16.50;7.90;;;;;;;14.12;100.00;99554.84;108119;1287;22020;-71
2023/12/14 00:25:48;;;;;;;16.10;7.70;;;;;;;14.16;100.00;99556.09;108140;1287;21996;-71
2023/12/14 00:28:14;;;;;;;17.60;7.80;;;;;;;14.17;100.00;99550.43;108138;1281;21995;-70
2023/12/14 00:30:40;;;;;;;20.70;8.30;;;;;;;14.09;100.00;99549.67;108125;1278;21985;-63
2023/12/14 00:33:05;;;;;;;18.20;8.80;;;;;;;14.12;100.00;99539.50;108145;1286;21987;-69
2023/12/14 00:35:31;;;;;;;16.60;7.70;;;;;;;14.08;100.00;99535.98;108143;1287;22022;-72
2023/12/14 00:37:56;;;;;;;16.80;8.30;;;;;;;14.12;100.00;99530.52;108116;1287;21995;-71
2023/12/14 00:40:22;;;;;;;17.80;8.50;;;;;;;14.13;100.00;99534.86;108099;1287;22483;-72
2023/12/14 00:42:48;;;;;;;19.00;9.20;;;;;;;14.14;100.00;99540.66;108149;1287;21984;-72
2023/12/14 00:45:13;;;;;;;19.60;9.10;;;;;;;14.15;100.00;99539.92;108154;1287;21956;-63
2023/12/14 00:47:39;;;;;;;20.60;9.10;;;;;;;14.21;100.00;99536.48;108159;1287;21992;-64
2023/12/14 00:50:05;;;;;;;18.80;8.90;;;;;;;14.15;100.00;99536.73;108125;1278;21997;-72
2023/12/14 00:52:31;;;;;;;15.60;8.40;;;;;;;14.15;100.00;99529.14;108200;1281;22180;-71
2023/12/14 00:54:56;;;;;;;21.10;8.90;;;;;;;14.18;100.00;99517.57;108155;1287;21952;-71
2023/12/14 00:57:22;;;;;;;19.60;9.00;;;;;;;14.17;100.00;99517.77;108102;1287;21987;-63
2023/12/14 00:59:48;;;;;;;16.40;9.20;;;;;;;14.16;100.00;99519.23;107952;1277;23743;-68
2023/12/14 01:02:13;;;;;;;21.50;9.30;;;;;;;14.17;100.00;99517.09;108076;1287;23653;-72
2023/12/14 01:04:39;;;;;;;22.30;9.20;;;;;;;14.20;100.00;99513.95;108060;1288;22029;-64
2023/12/14 01:07:04;;;;;;;17.80;9.50;;;;;;;14.24;100.00;99513.27;108100;1286;22718;-71
2023/12/14 01:09:33;;;;;;;23.00;9.70;;;;;;;14.25;100.00;99514.11;108148;1287;21985;-63
2023/12/14 01:11:58;;;;;;;20.40;9.40;;;;;;;14.29;100.00;99512.86;108182;1287;23644;-73
2023/12/14 01:14:24;;;;;;;19.30;9.90;;;;;;;14.31;100.00;99507.50;108103;1277;23612;-71
2023/12/14 01:16:50;;;;;;;17.90;8.60;;;;;;;14.30;100.00;99503.31;108175;1287;21990;-63
2023/12/14 01:19:15;;;;;;;21.50;9.40;;;;;;;14.28;100.00;99492.98;108116;1278;21987;-62
2023/12/14 01:21:41;;;;;;;18.10;8.70;;;;;;;14.24;100.00;99485.55;108288;1287;21989;-64
2023/12/14 01:24:06;;;;;;;19.80;9.30;;;;;;;14.25;100.00;99483.04;108166;1287;21995;-63
2023/12/14 01:26:32;;;;;;;20.10;9.50;;;;;;;14.25;100.00;99483.59;108113;1288;23682;-71
2023/12/14 01:28:59;;;;;;;19.20;9.70;;;;;;;14.22;100.00;99480.00;108116;1283;21991;-73
2023/12/14 01:31:25;;;;;;;20.70;10.00;;;;;;;14.21;100.00;99478.64;108219;1284;23663;-73
2023/12/14 01:33:50;;;;;;;15.30;8.50;;;;;;;14.25;100.00;99471.06;108128;1287;21983;-64
2023/12/14 01:36:23;;;;;;;21.60;10.60;;;;;;;14.28;100.00;99460.33;107920;1284;23688;-72
2023/12/14 01:38:49;;;;;;;20.70;9.20;;;;;;;14.31;100.00;99455.48;108161;1287;21988;-72
2023/12/14 01:41:14;;;;;;;21.80;9.20;;;;;;;14.33;100.00;99457.48;108171;1287;21989;-64
2023/12/14 01:43:40;;;;;;;18.80;8.30;;;;;;;14.34;100.00;99460.96;108071;1287;21990;-64
2023/12/14 01:46:06;;;;;;;21.00;8.30;;;;;;;14.32;100.00;99460.33;108100;1274;21997;-63
2023/12/14 01:48:31;;;;;;;21.90;9.30;;;;;;;14.35;100.00;99457.04;108094;1284;22004;-63
2023/12/14 01:50:57;;;;;;;21.60;9.50;;;;;;;14.38;100.00;99454.78;108118;1287;22448;-64
2023/12/14 01:53:22;;;;;;;21.20;9.50;;;;;;;14.37;100.00;99456.42;108167;1285;21997;-66
2023/12/14 01:55:48;;;;;;;19.10;8.60;;;;;;;14.45;100.00;99450.27;108189;1287;21989;-72
2023/12/14 01:58:14;;;;;;;17.80;8.80;;;;;;;14.48;100.00;99447.16;108056;1287;21997;-64
2023/12/14 02:01:01;;;;;;;17.10;7.90;;;;;;;14.53;100.00;99444.11;108111;1288;21993;-65
2023/12/14 02:03:26;;;;;;;17.50;8.80;;;;;;;14.55;100.00;99436.93;108079;1288;22217;-72
2023/12/14 02:05:52;;;;;;;26.30;9.40;;;;;;;14.54;100.00;99433.82;108168;1284;21987;-71
2023/12/14 02:08:17;;;;;;;19.00;8.40;;;;;;;14.58;100.00;99435.77;108206;1287;21989;-73
2023/12/14 02:10:43;;;;;;;25.50;8.70;;;;;;;14.62;100.00;99428.73;108112;1287;22449;-64
2023/12/14 02:13:09;;;;;;;17.50;8.60;;;;;;;14.63;100.00;99423.17;108129;1287;22000;-64
2023/12/14 02:15:34;;;;;;;14.50;7.60;;;;;;;14.65;100.00;99426.97;108066;1280;22242;-73
2023/12/14 02:18:00;;;;;;;17.90;9.10;;;;;;;14.67;100.00;99433.26;108128;1281;23638;-73
2023/12/14 02:20:25;;;;;;;16.20;8.60;;;;;;;14.60;100.00;99432.16;108134;1287;22043;-72
2023/12/14 02:22:54;;;;;;;20.40;7.80;;;;;;;14.69;100.00;99425.41;108059;1287;21989;-64
2023/12/14 02:25:21;;;;;;;17.90;7.70;;;;;;;14.73;100.00;99422.95;107811;1288;22014;-64
2023/12/14 02:27:47;;;;;;;16.00;6.60;;;;;;;14.73;100.00;99417.48;107858;1284;21981;-73
2023/12/14 02:30:13;;;;;;;15.40;6.50;;;;;;;14.78;100.00;99415.50;108133;1288;22001;-72
2023/12/14 02:32:41;;;;;;;16.40;7.00;;;;;;;14.75;100.00;99411.38;108063;1288;22026;-65
2023/12/14 02:35:07;;;;;;;16.40;7.60;;;;;;;14.75;100.00;99416.67;108081;1288;21986;-73
2023/12/14 02:37:34;;;;;;;14.60;6.90;;;;;;;14.82;100.00;99412.85;107936;1288;22411;-65
2023/12/14 02:40:04;;;;;;;13.90;6.80;;;;;;;14.84;100.00;99421.38;107911;1288;21993;-73
2023/12/14 02:42:30;;;;;;;;;;;;;;;14.83;100.00;99417.04;108140;1288;23097;-73
2023/12/14 02:44:56;;;;;;;20.00;7.00;;;;;;;14.85;100.00;99411.83;108136;1288;22045;-64
2023/12/14 02:47:22;;;;;;;18.00;6.90;;;;;;;14.83;100.00;99409.28;108111;1286;21990;-70
2023/12/14 02:49:47;;;;;;;18.00;6.60;;;;;;;14.84;100.00;99403.36;108155;1288;21986;-71
2023/12/14 02:52:13;;;;;;;20.70;7.90;;;;;;;14.85;100.00;99413.56;108084;1288;22002;-64
2023/12/14 02:54:41;;;;;;;16.70;6.20;;;;;;;14.82;100.00;99411.43;108086;1282;22001;-73
2023/12/14 02:57:07;;;;;;;15.20;6.60;;;;;;;14.85;100.00;99410.56;108204;1287;21990;-71
2023/12/14 02:59:32;;;;;;;22.40;7.90;;;;;;;14.84;100.00;99405.48;108075;1287;21990;-64
2023/12/14 03:01:58;;;;;;;19.80;7.60;;;;;;;14.82;100.00;99397.14;108075;1288;21990;-73
2023/12/14 03:04:23;;;;;;;18.30;7.10;;;;;;;14.85;100.00;99393.10;108057;1288;22010;-71
2023/12/14 03:06:49;;;;;;;15.90;6.80;;;;;;;14.88;100.00;99388.36;108125;1287;21994;-71
2023/12/14 03:09:15;;;;;;;13.30;6.20;;;;;;;14.84;100.00;99395.45;108113;1278;21990;-72
2023/12/14 03:11:40;;;;;;;19.00;6.60;;;;;;;14.82;100.00;99396.42;108059;1287;21989;-71
2023/12/14 03:14:06;;;;;;;16.80;6.60;;;;;;;14.82;100.00;99403.10;109975;1283;22372;-71
2023/12/14 03:16:31;;;;;;;16.10;7.40;;;;;;;14.87;100.00;99401.83;108188;1281;23641;-64
2023/12/14 03:18:57;;;;;;;14.90;6.50;;;;;;;14.91;100.00;99404.33;108071;1287;21986;-70
2023/12/14 03:21:23;;;;;;;13.40;6.30;;;;;;;14.90;100.00;99402.41;108082;1284;22178;-70
2023/12/14 03:23:49;;;;;;;15.30;6.80;;;;;;;14.92;100.00;99395.96;108208;1287;22021;-71
2023/12/14 03:26:15;;;;;;;17.90;6.30;;;;;;;14.91;100.00;99397.27;108159;1287;22014;-64
2023/12/14 03:28:41;;;;;;;14.00;6.00;;;;;;;14.92;100.00;99396.31;108113;1287;21983;-63
2023/12/14 03:31:07;;;;;;;19.50;6.90;;;;;;;14.91;100.00;99382.42;108064;1287;21989;-63
2023/12/14 03:33:32;;;;;;;18.30;7.30;;;;;;;14.94;100.00;99378.76;108089;1287;21972;-63
2023/12/14 03:35:59;;;;;;;18.50;6.70;;;;;;;14.93;100.00;99379.69;108075;1287;22005;-71
2023/12/14 03:38:27;;;;;;;16.40;7.00;;;;;;;14.97;100.00;99374.88;108143;1281;21995;-72
2023/12/14 03:40:53;;;;;;;15.70;6.80;;;;;;;14.93;100.00;99370.48;108123;1287;21990;-71
2023/12/14 03:43:19;;;;;;;20.10;7.30;;;;;;;14.98;100.00;99373.08;108143;1277;22002;-71
2023/12/14 03:45:44;;;;;;;18.40;7.20;;;;;;;15.01;100.00;99375.95;108051;1287;21994;-70
2023/12/14 03:48:11;;;;;;;15.50;6.90;;;;;;;14.98;100.00;99374.14;108093;1285;21993;-65
2023/12/14 03:50:36;;;;;;;16.80;7.40;;;;;;;15.03;100.00;99370.70;108153;1287;22001;-73
2023/12/14 03:53:05;;;;;;;18.80;7.20;;;;;;;15.03;100.00;99366.65;108092;1285;22001;-64
2023/12/14 03:55:30;;;;;;;21.90;7.10;;;;;;;15.01;100.00;99368.19;108128;1287;23627;-64
2023/12/14 03:57:56;;;;;;;17.50;7.50;;;;;;;15.01;100.00;99372.42;108107;1287;22002;-73
2023/12/14 04:00:21;;;;;;;17.20;6.80;;;;;;;15.01;100.00;99378.38;108114;1287;23637;-72
2023/12/14 04:02:47;;;;;;;20.70;7.10;;;;;;;15.01;100.00;99382.45;108071;1287;21984;-65
2023/12/14 04:05:13;;;;;;;17.70;8.20;;;;;;;15.02;100.00;99384.36;108065;1287;23036;-63
2023/12/14 04:07:41;;;;;;;17.00;6.80;;;;;;;15.01;100.00;99383.00;108107;1278;21996;-65
2023/12/14 04:10:08;;;;;;;18.80;7.50;;;;;;;15.03;100.00;99373.73;108140;1287;21987;-71
2023/12/14 04:12:35;;;;;;;18.30;7.50;;;;;;;15.02;100.00;99378.73;108104;1287;21998;-72
2023/12/14 04:15:02;;;;;;;24.10;10.80;;;;;;;15.01;100.00;99375.41;108097;1287;22170;-64
2023/12/14 04:17:28;;;;;;;29.80;11.80;;;;;;;15.03;100.00;99371.77;108089;1287;21985;-72
2023/12/14 04:19:53;;;;;;;20.50;9.10;;;;;;;15.08;100.00;99372.06;108105;1287;22022;-71
2023/12/14 04:22:19;;;;;;;20.90;9.40;;;;;;;15.10;100.00;99379.60;108128;1281;22030;-73
2023/12/14 04:24:45;;;;;;;28.10;11.30;;;;;;;15.09;100.00;99383.33;108124;1287;21986;-64
2023/12/14 04:27:10;;;;;;;18.00;8.60;;;;;;;15.04;100.00;99386.06;108094;1278;23224;-64
2023/12/14 04:29:36;;;;;;;19.40;7.80;;;;;;;15.04;100.00;99386.42;108128;1287;21983;-64
2023/12/14 04:32:02;;;;;;;22.30;7.90;;;;;;;15.10;100.00;99393.36;108036;1284;21989;-72
2023/12/14 04:34:28;;;;;;;17.60;7.40;;;;;;;15.11;100.00;99403.23;108113;1287;21989;-65
2023/12/14 04:36:57;;;;;;;19.10;7.40;;;;;;;15.12;100.00;99412.01;108095;1281;23398;-73
2023/12/14 04:39:26;;;;;;;18.10;6.50;;;;;;;15.15;100.00;99406.58;108110;1288;21992;-71
2023/12/14 04:41:52;;;;;;;21.80;7.70;;;;;;;15.16;100.00;99391.67;108114;1288;23809;-65
2023/12/14 04:44:19;;;;;;;17.50;8.20;;;;;;;15.14;100.00;99391.42;108167;1284;22097;-73
2023/12/14 04:46:44;;;;;;;19.70;7.90;;;;;;;15.16;100.00;99394.69;108124;1288;22007;-73
2023/12/14 04:49:10;;;;;;;18.80;7.20;;;;;;;15.14;100.00;99390.02;108122;1288;21992;-65
2023/12/14 04:51:36;;;;;;;21.10;7.40;;;;;;;15.15;100.00;99388.71;108126;1288;21993;-65
2023/12/14 04:54:02;;;;;;;20.90;7.50;;;;;;;15.13;100.00;99377.14;108135;1287;21992;-64
2023/12/14 04:56:28;;;;;;;18.90;7.20;;;;;;;15.13;100.00;99366.89;108176;1287;21990;-64
2023/12/14 04:58:54;;;;;;;14.60;7.40;;;;;;;15.14;100.00;99367.04;108064;1287;22934;-64
2023/12/14 05:01:19;;;;;;;19.10;8.00;;;;;;;15.14;100.00;99370.55;108087;1287;21989;-65
2023/12/14 05:03:45;;;;;;;16.00;7.20;;;;;;;15.16;100.00;99357.56;108065;1287;24467;-74
2023/12/14 05:06:10;;;;;;;19.50;7.80;;;;;;;15.15;100.00;99357.09;108126;1287;21994;-64
2023/12/14 05:08:36;;;;;;;18.70;7.70;;;;;;;15.13;100.00;99367.77;108161;1287;21986;-73
2023/12/14 05:11:03;;;;;;;18.10;6.60;;;;;;;15.13;100.00;99370.10;108117;1280;22028;-64
2023/12/14 05:13:28;;;;;;;16.30;7.50;;;;;;;15.17;100.00;99378.94;108161;1277;21987;-72
2023/12/14 05:15:54;;;;;;;18.40;7.10;;;;;;;15.13;100.00;99377.48;108160;1287;21987;-64
2023/12/14 05:18:20;;;;;;;17.20;7.70;;;;;;;15.18;100.00;99375.02;108103;1287;21993;-66
2023/12/14 05:20:45;;;;;;;12.70;7.10;;;;;;;15.17;100.00;99380.35;108145;1287;21992;-70
2023/12/14 05:23:14;;;;;;;23.70;8.60;;;;;;;15.14;100.00;99379.39;108121;1287;22048;-71
2023/12/14 05:25:39;;;;;;;18.50;7.50;;;;;;;15.16;100.00;99381.41;108134;1287;21989;-72
2023/12/14 05:28:05;;;;;;;16.70;7.20;;;;;;;15.16;100.00;99381.45;108148;1287;21996;-65
2023/12/14 05:30:31;;;;;;;23.20;8.50;;;;;;;15.16;100.00;99384.64;108123;1287;23326;-74
2023/12/14 05:32:56;;;;;;;19.50;7.90;;;;;;;15.13;100.00;99373.45;108114;1287;21987;-64
2023/12/14 05:35:22;;;;;;;16.10;7.30;;;;;;;15.17;100.00;99367.80;108117;1287;22002;-64
2023/12/14 05:37:48;;;;;;;18.80;7.90;;;;;;;15.14;100.00;99363.33;108106;1287;21955;-74
2023/12/14 05:40:14;;;;;;;21.60;8.50;;;;;;;15.13;100.00;99358.24;108165;1287;22006;-63
2023/12/14 05:42:39;;;;;;;18.70;7.40;;;;;;;15.13;100.00;99347.63;108138;1287;22027;-70
2023/12/14 05:45:06;;;;;;;25.40;8.60;;;;;;;15.14;100.00;99347.41;108144;1287;23644;-64
2023/12/14 05:47:34;;;;;;;21.30;10.00;;;;;;;15.17;100.00;99350.31;108189;1284;22746;-71
2023/12/14 05:50:00;;;;;;;19.20;8.10;;;;;;;15.14;100.00;99349.16;108167;1287;21998;-71
2023/12/14 05:52:26;;;;;;;22.70;9.70;;;;;;;15.17;100.00;99351.19;108183;1287;21991;-72
2023/12/14 05:54:52;;;;;;;25.30;10.20;;;;;;;15.19;100.00;99356.75;108134;1287;22430;-71
2023/12/14 05:57:17;;;;;;;36.10;15.60;;;;;;;15.20;100.00;99354.94;108138;1287;22006;-72
2023/12/14 05:59:43;;;;;;;22.20;9.40;;;;;;;15.22;100.00;99349.20;108111;1287;21996;-64
2023/12/14 06:02:08;;;;;;;22.70;9.30;;;;;;;15.21;100.00;99353.27;108089;1289;21990;-64
2023/12/14 06:04:34;;;;;;;25.20;9.40;;;;;;;15.23;100.00;99344.54;108073;1284;21990;-71
2023/12/14 06:07:00;;;;;;;18.80;8.60;;;;;;;15.26;100.00;99349.14;108099;1288;21990;-64
2023/12/14 06:09:35;;;;;;;24.00;9.20;;;;;;;15.30;100.00;99353.57;107925;1287;23727;-70
2023/12/14 06:12:02;;;;;;;20.30;9.60;;;;;;;15.32;100.00;99358.95;108143;1288;21992;-72
2023/12/14 06:14:28;;;;;;;20.20;9.80;;;;;;;15.34;100.00;99358.83;108111;1288;21987;-72
2023/12/14 06:16:54;;;;;;;18.60;8.20;;;;;;;15.33;100.00;99352.69;108076;1288;22170;-72
2023/12/14 06:19:19;;;;;;;21.80;8.40;;;;;;;15.37;100.00;99340.14;108115;1287;23634;-64
2023/12/14 06:21:45;;;;;;;20.50;9.40;;;;;;;15.40;100.00;99341.76;108184;1287;21996;-67
2023/12/14 06:24:10;;;;;;;23.60;8.90;;;;;;;15.39;100.00;99343.77;108147;1287;21990;-64
2023/12/14 06:26:45;;;;;;;22.30;9.00;;;;;;;15.42;100.00;99339.73;108070;1284;22001;-65
2023/12/14 06:29:11;;;;;;;16.20;9.20;;;;;;;15.46;100.00;99350.31;108092;1287;21991;-72
2023/12/14 06:31:38;;;;;;;30.00;10.60;;;;;;;15.48;100.00;99355.16;108135;1284;23624;-65
2023/12/14 06:34:05;;;;;;;19.10;9.10;;;;;;;15.49;100.00;99354.03;108087;1287;21986;-71
2023/12/14 06:36:31;;;;;;;25.30;9.90;;;;;;;15.51;100.00;99349.02;108066;1287;21991;-66
2023/12/14 06:38:58;;;;;;;22.80;9.10;;;;;;;15.53;100.00;99347.67;107197;1287;1002339;-64
2023/12/14 06:41:24;;;;;;;20.50;9.80;;;;;;;15.52;100.00;99348.45;108102;1284;23609;-71
2023/12/14 06:43:49;;;;;;;24.50;9.80;;;;;;;15.52;100.00;99342.96;108075;1287;21993;-71
2023/12/14 06:46:15;;;;;;;22.10;9.90;;;;;;;15.52;100.00;99339.95;108095;1281;22001;-64
2023/12/14 06:48:41;;;;;;;29.10;11.20;;;;;;;15.51;100.00;99335.77;108049;1287;21990;-71
2023/12/14 06:51:06;;;;;;;22.30;10.30;;;;;;;15.49;100.00;99324.20;108160;1287;23644;-71
2023/12/14 06:53:32;;;;;;;31.40;11.60;;;;;;;15.46;100.00;99316.90;108107;1287;21997;-70
2023/12/14 06:55:57;;;;;;;24.60;10.20;;;;;;;15.50;100.00;99324.12;108191;1284;22231;-64
2023/12/14 06:58:23;;;;;;;22.80;10.60;;;;;;;15.50;100.00;99324.45;107951;1287;22029;-64
2023/12/14 07:00:49;;;;;;;22.40;10.50;;;;;;;15.52;100.00;99320.32;108069;1287;21988;-70
2023/12/14 07:03:17;;;;;;;25.60;9.30;;;;;;;15.51;100.00;99322.69;108109;1287;21989;-64
2023/12/14 07:05:43;;;;;;;26.50;9.80;;;;;;;15.52;100.00;99324.71;108135;1281;22221;-65
2023/12/14 07:08:08;;;;;;;23.60;9.20;;;;;;;15.55;100.00;99326.86;108126;1288;22002;-65
2023/12/14 07:10:34;;;;;;;23.90;10.00;;;;;;;15.59;100.00;99324.23;108114;1288;21992;-69
2023/12/14 07:12:59;;;;;;;28.80;11.80;;;;;;;15.55;100.00;99322.44;108099;1278;21993;-64
2023/12/14 07:15:25;;;;;;;23.10;10.10;;;;;;;15.61;100.00;99325.55;108183;1284;22057;-65
2023/12/14 07:17:51;;;;;;;28.00;11.70;;;;;;;15.61;100.00;99324.16;108145;1287;21988;-70
2023/12/14 07:20:17;;;;;;;20.20;9.90;;;;;;;15.65;100.00;99318.42;108186;1286;22030;-65
2023/12/14 07:22:42;;;;;;;24.50;9.50;;;;;;;15.67;100.00;99317.29;108104;1287;21989;-68
2023/12/14 07:25:08;;;;;;;22.90;11.10;;;;;;;15.68;100.00;99315.78;108098;1287;21987;-69
2023/12/14 07:27:34;;;;;;;22.90;9.90;;;;;;;15.70;100.00;99307.91;108057;1287;21995;-70
2023/12/14 07:29:59;;;;;;;18.90;9.20;;;;;;;15.69;100.00;99308.89;108131;1283;22154;-69
2023/12/14 07:32:25;;;;;;;22.10;9.90;;;;;;;15.68;100.00;99315.11;108092;1287;21985;-69
2023/12/14 07:34:52;;;;;;;21.80;9.70;;;;;;;15.70;100.00;99307.39;108144;1278;21993;-64
2023/12/14 07:37:18;;;;;;;26.40;11.10;;;;;;;15.75;100.00;99301.64;108092;1287;21991;-69
2023/12/14 07:39:43;;;;;;;21.00;9.30;;;;;;;15.75;100.00;99311.20;108148;1279;21995;-69
2023/12/14 07:42:09;;;;;;;22.70;10.20;;;;;;;15.76;100.00;99315.76;108090;1278;22210;-64
2023/12/14 07:44:35;;;;;;;27.10;9.30;;;;;;;15.72;100.00;99321.42;108082;1287;21994;-69
2023/12/14 07:47:01;;;;;;;21.80;9.80;;;;;;;15.74;100.00;99323.64;108103;1278;21989;-65
2023/12/14 07:49:26;;;;;;;27.10;10.90;;;;;;;15.77;100.00;99323.86;108115;1287;21980;-69
2023/12/14 07:51:52;;;;;;;25.50;10.70;;;;;;;15.73;100.00;99322.99;108126;1287;22036;-68
2023/12/14 07:54:18;;;;;;;23.50;10.30;;;;;;;15.71;100.00;99316.19;108196;1287;22048;-66
2023/12/14 07:56:44;;;;;;;24.40;10.60;;;;;;;15.76;100.00;99320.38;108118;1281;21991;-67
2023/12/14 07:59:10;;;;;;;27.50;10.40;;;;;;;15.82;100.00;99336.35;108093;1287;21991;-68
2023/12/14 08:01:36;;;;;;;23.60;10.20;;;;;;;15.80;100.00;99345.10;108141;1286;21989;-68
2023/12/14 08:04:02;;;;;;;22.20;10.60;;;;;;;15.87;100.00;99346.39;108161;1284;21997;-65
2023/12/14 08:06:28;;;;;;;26.10;12.00;;;;;;;15.86;100.00;99339.15;108099;1287;22024;-68
2023/12/14 08:08:57;;;;;;;25.00;10.60;;;;;;;15.89;100.00;99340.10;108157;1287;21983;-68
2023/12/14 08:11:24;;;;;;;27.30;11.40;;;;;;;15.89;100.00;99337.95;108102;1288;21986;-68
2023/12/14 08:13:50;;;;;;;27.90;13.00;;;;;;;15.87;100.00;99339.11;108089;1287;21985;-64
2023/12/14 08:16:17;;;;;;;29.10;11.10;;;;;;;15.80;100.00;99344.02;108084;1284;22226;-64
2023/12/14 08:18:46;;;;;;;27.10;10.70;;;;;;;15.85;100.00;99342.02;108101;1281;21987;-65
2023/12/14 08:21:12;;;;;;;26.90;10.70;;;;;;;15.91;100.00;99337.85;108170;1287;21987;-65
2023/12/14 08:23:37;;;;;;;25.80;10.80;;;;;;;15.94;100.00;99341.79;108125;1284;21988;-66
2023/12/14 08:26:03;;;;;;;25.60;11.60;;;;;;;15.99;100.00;99340.63;108212;1287;22153;-64
2023/12/14 08:28:29;;;;;;;25.80;12.50;;;;;;;15.94;100.00;99343.71;108094;1287;23705;-67
2023/12/14 08:30:57;;;;;;;24.70;11.10;;;;;;;15.92;100.00;99337.98;108193;1287;21985;-64
2023/12/14 08:33:23;;;;;;;25.10;10.70;;;;;;;15.81;100.00;99340.47;108153;1287;21993;-64
2023/12/14 08:35:50;;;;;;;26.70;11.30;;;;;;;15.80;100.00;99330.77;108164;1287;21985;-66
2023/12/14 08:38:16;;;;;;;24.80;11.40;;;;;;;15.88;100.00;99317.83;108164;1287;21991;-66
2023/12/14 08:40:42;;;;;;;21.70;10.20;;;;;;;15.96;100.00;99325.90;108126;1287;21989;-66
2023/12/14 08:43:07;;;;;;;24.70;12.70;;;;;;;15.98;100.00;99329.91;108087;1287;21989;-67
2023/12/14 08:45:33;;;;;;;23.50;11.90;;;;;;;15.96;100.00;99325.76;108101;1281;21957;-64
2023/12/14 08:47:58;;;;;;;32.30;13.20;;;;;;;15.98;100.00;99322.83;108107;1287;21986;-64
2023/12/14 08:50:26;;;;;;;30.20;14.30;;;;;;;15.95;100.00;99321.38;108105;1280;21989;-64
2023/12/14 08:52:53;;;;;;;28.50;13.10;;;;;;;15.96;100.00;99325.39;108161;1287;21998;-64
2023/12/14 08:55:19;;;;;;;23.10;12.70;;;;;;;16.02;100.00;99324.20;108167;1287;23732;-67
2023/12/14 08:57:44;;;;;;;28.40;13.50;;;;;;;16.01;100.00;99331.31;108132;1287;21994;-66
2023/12/14 09:00:11;;;;;;;23.70;11.90;;;;;;;15.95;100.00;99338.71;108186;1287;22003;-63
2023/12/14 09:02:37;;;;;;;29.90;12.90;;;;;;;16.09;100.00;99340.14;108155;1287;21989;-64
2023/12/14 09:05:04;;;;;;;30.30;12.60;;;;;;;16.11;100.00;99342.88;108169;1287;21994;-64
2023/12/14 09:07:30;;;;;;;23.70;13.30;;;;;;;16.06;100.00;99344.88;108173;1287;21992;-64
2023/12/14 09:09:56;;;;;;;27.50;13.20;;;;;;;16.07;100.00;99341.67;108139;1287;21988;-63
2023/12/14 09:12:21;;;;;;;19.80;11.30;;;;;;;16.08;100.00;99333.33;108130;1287;22456;-64
2023/12/14 09:14:47;;;;;;;20.50;10.80;;;;;;;16.12;100.00;99327.80;108102;1287;21986;-64
2023/12/14 09:17:16;;;;;;;29.20;12.20;;;;;;;16.12;100.00;99318.75;108132;1287;21984;-68
2023/12/14 09:19:41;;;;;;;24.10;12.50;;;;;;;16.10;100.00;99313.00;108099;1287;21986;-68
2023/12/14 09:22:07;;;;;;;26.00;12.00;;;;;;;16.07;100.00;99306.65;107337;1287;1002480;-67
2023/12/14 09:24:32;;;;;;;31.90;12.70;;;;;;;15.97;100.00;99308.86;108180;1284;21997;-64
2023/12/14 09:26:58;;;;;;;30.10;13.40;;;;;;;15.98;100.00;99299.31;108175;1287;21982;-64
2023/12/14 09:29:23;;;;;;;29.50;13.50;;;;;;;16.03;100.00;99288.41;108137;1287;21986;-67
2023/12/14 09:31:50;;;;;;;26.10;13.00;;;;;;;16.06;100.00;99288.96;108156;1287;21987;-68
2023/12/14 09:34:15;;;;;;;24.70;11.80;;;;;;;16.05;100.00;99289.74;108225;1284;21992;-62
2023/12/14 09:36:41;;;;;;;31.70;12.80;;;;;;;16.00;100.00;99286.46;108086;1287;21989;-64
2023/12/14 09:39:10;;;;;;;23.70;13.00;;;;;;;15.99;100.00;99283.14;108137;1287;21987;-62
2023/12/14 09:41:39;;;;;;;26.20;12.30;;;;;;;15.98;100.00;99272.58;108182;1287;22004;-66
2023/12/14 09:44:06;;;;;;;26.20;12.00;;;;;;;15.98;100.00;99270.80;108047;1287;22185;-65
2023/12/14 09:46:34;;;;;;;30.70;11.90;;;;;;;15.94;100.00;99271.38;108165;1287;21989;-66
2023/12/14 09:49:00;;;;;;;24.80;12.40;;;;;;;15.93;100.00;99275.67;108169;1287;21991;-63
2023/12/14 09:51:26;;;;;;;24.20;12.30;;;;;;;15.93;100.00;99278.86;108022;1284;21992;-64
2023/12/14 09:53:57;;;;;;;23.70;13.20;;;;;;;15.96;100.00;99274.98;108087;1287;21988;-63
2023/12/14 09:56:25;;;;;;;29.30;13.10;;;;;;;16.00;100.00;99272.84;108096;1287;22209;-63
2023/12/14 09:58:50;;;;;;;27.70;13.30;;;;;;;16.03;100.00;99276.40;108103;1287;21986;-66
2023/12/14 10:01:24;;;;;;;27.50;12.90;;;;;;;16.06;100.00;99284.02;108150;1287;21975;-65
2023/12/14 10:03:50;;;;;;;24.40;12.90;;;;;;;16.07;100.00;99292.83;108153;1287;21978;-66
2023/12/14 10:06:17;;;;;;;24.50;12.30;;;;;;;16.06;100.00;99297.48;108124;1287;21997;-64
2023/12/14 10:08:53;;;;;;;24.30;12.40;;;;;;;16.05;100.00;99301.38;108157;1287;21992;-67
2023/12/14 10:11:19;;;;;;;29.30;12.10;;;;;;;15.97;100.00;99300.24;108037;1287;21994;-62
2023/12/14 10:13:44;;;;;;;22.40;12.30;;;;;;;15.96;100.00;99304.69;108098;1287;21992;-62
2023/12/14 10:16:10;;;;;;;27.50;12.30;;;;;;;15.94;100.00;99311.18;108114;1287;22029;-65
2023/12/14 10:18:36;;;;;;;25.60;12.00;;;;;;;15.88;100.00;99305.44;108107;1287;21989;-63
2023/12/14 10:21:02;;;;;;;21.70;11.10;;;;;;;15.94;100.00;99302.16;108172;1278;22003;-65
2023/12/14 10:23:28;;;;;;;23.30;11.30;;;;;;;16.01;100.00;99295.05;108110;1287;21994;-63
2023/12/14 10:25:53;;;;;;;22.00;11.60;;;;;;;15.99;100.00;99295.15;108129;1287;21994;-65
2023/12/14 10:28:19;;;;;;;23.00;10.60;;;;;;;16.04;100.00;99294.02;108080;1287;21987;-66
2023/12/14 10:30:45;;;;;;;22.50;11.40;;;;;;;16.07;100.00;99288.23;108141;1286;22025;-66
2023/12/14 10:33:10;;;;;;;24.10;12.10;;;;;;;16.03;100.00;99287.16;108168;1287;22020;-66
2023/12/14 10:35:36;;;;;;;21.30;11.90;;;;;;;16.05;100.00;99292.77;108077;1287;21987;-62
2023/12/14 10:38:04;;;;;;;26.10;13.00;;;;;;;16.02;100.00;99304.06;108089;1289;21982;-65
2023/12/14 10:40:30;;;;;;;26.00;12.00;;;;;;;15.98;100.00;99309.88;108120;1288;22054;-65
2023/12/14 10:42:58;;;;;;;22.90;10.70;;;;;;;15.97;100.00;99311.21;108138;1287;21987;-64
2023/12/14 10:45:32;;;;;;;25.30;12.30;;;;;;;16.02;100.00;99312.34;108127;1287;21989;-64
2023/12/14 10:47:58;;;;;;;32.90;12.30;;;;;;;16.03;100.00;99309.11;108187;1287;23729;-62
2023/12/14 10:50:24;;;;;;;25.50;12.90;;;;;;;16.03;100.00;99303.10;108157;1287;21987;-62
2023/12/14 10:52:50;;;;;;;23.90;11.70;;;;;;;16.06;100.00;99300.83;108055;1287;21979;-65
2023/12/14 10:55:21;;;;;;;23.30;12.70;;;;;;;16.01;100.00;99298.08;108084;1287;21977;-62
2023/12/14 10:57:47;;;;;;;28.90;13.90;;;;;;;15.91;100.00;99296.80;108051;1287;22002;-62
2023/12/14 11:00:15;;;;;;;29.20;13.10;;;;;;;15.86;100.00;99296.17;108098;1287;21973;-62
2023/12/14 11:02:42;;;;;;;27.10;12.30;;;;;;;15.94;100.00;99294.00;108080;1284;23067;-62